sensor_id;sensor_type;location;lat;lon;timestamp;pressure;altitude;pressure_sealevel;temperature;humidity
40992;BME280;29633;49.168;9.848;2022-12-07T00:03:38;96849.47;;;8.32;70.77
40992;BME280;29633;49.168;9.848;2022-12-07T00:06:05;96841.63;;;8.33;70.84
40992;BME280;29633;49.168;9.848;2022-12-07T00:08:32;96844.22;;;8.33;70.74
40992;BME280;29633;49.168;9.848;2022-12-07T00:11:06;96843.59;;;8.30;70.82
40992;BME280;29633;49.168;9.848;2022-12-07T00:13:32;96835.94;;;8.28;70.76
40992;BME280;29633;49.168;9.848;2022-12-07T00:16:02;96834.94;;;8.31;70.67
40992;BME280;29633;49.168;9.848;2022-12-07T00:18:28;96839.66;;;8.37;70.61
40992;BME280;29633;49.168;9.848;2022-12-07T00:20:59;96842.97;;;8.39;70.66
40992;BME280;29633;49.168;9.848;2022-12-07T00:23:25;96829.22;;;8.38;70.67
40992;BME280;29633;49.168;9.848;2022-12-07T00:25:51;96830.97;;;8.38;70.62
40992;BME280;29633;49.168;9.848;2022-12-07T00:28:18;96825.22;;;8.34;70.72
40992;BME280;29633;49.168;9.848;2022-12-07T00:30:43;96824.78;;;8.28;70.67
40992;BME280;29633;49.168;9.848;2022-12-07T00:33:09;96822.41;;;8.25;70.87
40992;BME280;29633;49.168;9.848;2022-12-07T00:35:35;96826.63;;;8.26;70.73
40992;BME280;29633;49.168;9.848;2022-12-07T00:38:00;96819.81;;;8.25;70.81
40992;BME280;29633;49.168;9.848;2022-12-07T00:40:26;96823.22;;;8.25;70.71
40992;BME280;29633;49.168;9.848;2022-12-07T00:42:51;96824.97;;;8.25;70.66
40992;BME280;29633;49.168;9.848;2022-12-07T00:45:17;96822.75;;;8.20;70.54
40992;BME280;29633;49.168;9.848;2022-12-07T00:47:43;96819.41;;;8.18;70.75
40992;BME280;29633;49.168;9.848;2022-12-07T00:50:08;96820.47;;;8.16;70.55
40992;BME280;29633;49.168;9.848;2022-12-07T00:52:34;96822.34;;;8.14;70.77
40992;BME280;29633;49.168;9.848;2022-12-07T00:55:00;96818.09;;;8.13;70.72
40992;BME280;29633;49.168;9.848;2022-12-07T00:57:25;96825.72;;;8.14;70.77
40992;BME280;29633;49.168;9.848;2022-12-07T00:59:51;96821.31;;;8.16;70.49
40992;BME280;29633;49.168;9.848;2022-12-07T01:02:21;96826.16;;;8.21;70.57
40992;BME280;29633;49.168;9.848;2022-12-07T01:04:46;96827.06;;;8.20;70.64
40992;BME280;29633;49.168;9.848;2022-12-07T01:07:12;96830.34;;;8.22;70.71
40992;BME280;29633;49.168;9.848;2022-12-07T01:09:38;96826.63;;;8.26;70.58
40992;BME280;29633;49.168;9.848;2022-12-07T01:12:03;96834.59;;;8.23;70.59
40992;BME280;29633;49.168;9.848;2022-12-07T01:14:29;96828.72;;;8.21;70.62
40992;BME280;29633;49.168;9.848;2022-12-07T01:16:55;96828.50;;;8.24;70.49
40992;BME280;29633;49.168;9.848;2022-12-07T01:19:20;96827.69;;;8.23;70.42
40992;BME280;29633;49.168;9.848;2022-12-07T01:21:46;96826.25;;;8.19;70.53
40992;BME280;29633;49.168;9.848;2022-12-07T01:24:12;96834.00;;;8.19;70.76
40992;BME280;29633;49.168;9.848;2022-12-07T01:26:37;96836.19;;;8.13;70.76
40992;BME280;29633;49.168;9.848;2022-12-07T01:29:03;96839.16;;;8.07;70.77
40992;BME280;29633;49.168;9.848;2022-12-07T01:31:29;96828.97;;;8.05;70.71
40992;BME280;29633;49.168;9.848;2022-12-07T01:33:56;96834.97;;;8.06;70.57
40992;BME280;29633;49.168;9.848;2022-12-07T01:36:24;96826.25;;;8.07;70.52
40992;BME280;29633;49.168;9.848;2022-12-07T01:38:57;96838.25;;;8.08;70.47
40992;BME280;29633;49.168;9.848;2022-12-07T01:41:25;96841.13;;;8.03;70.71
40992;BME280;29633;49.168;9.848;2022-12-07T01:46:39;96839.81;;;7.98;70.76
40992;BME280;29633;49.168;9.848;2022-12-07T01:49:14;96841.69;;;7.96;70.61
40992;BME280;29633;49.168;9.848;2022-12-07T01:51:41;96839.19;;;7.94;70.57
40992;BME280;29633;49.168;9.848;2022-12-07T01:54:09;96833.53;;;7.89;70.62
40992;BME280;29633;49.168;9.848;2022-12-07T01:56:35;96829.19;;;7.89;70.56
40992;BME280;29633;49.168;9.848;2022-12-07T01:59:02;96827.34;;;7.91;70.46
40992;BME280;29633;49.168;9.848;2022-12-07T02:01:28;96833.00;;;7.97;70.32
40992;BME280;29633;49.168;9.848;2022-12-07T02:03:54;96825.16;;;7.98;70.39
40992;BME280;29633;49.168;9.848;2022-12-07T02:06:22;96833.81;;;7.97;70.52
40992;BME280;29633;49.168;9.848;2022-12-07T02:08:49;96828.78;;;7.96;70.52
40992;BME280;29633;49.168;9.848;2022-12-07T02:11:15;96830.41;;;7.97;70.24
40992;BME280;29633;49.168;9.848;2022-12-07T02:13:42;96833.22;;;7.93;70.49
40992;BME280;29633;49.168;9.848;2022-12-07T02:16:31;96829.19;;;7.89;70.60
40992;BME280;29633;49.168;9.848;2022-12-07T02:19:03;96829.31;;;7.88;70.33
40992;BME280;29633;49.168;9.848;2022-12-07T02:25:01;96828.88;;;7.81;70.39
40992;BME280;29633;49.168;9.848;2022-12-07T02:27:46;96825.19;;;7.73;70.67
40992;BME280;29633;49.168;9.848;2022-12-07T02:30:14;96824.56;;;7.69;70.40
40992;BME280;29633;49.168;9.848;2022-12-07T02:33:04;96819.19;;;7.72;70.40
40992;BME280;29633;49.168;9.848;2022-12-07T02:35:38;96815.56;;;7.75;70.40
40992;BME280;29633;49.168;9.848;2022-12-07T02:38:35;96813.81;;;7.75;70.20
40992;BME280;29633;49.168;9.848;2022-12-07T02:41:09;96815.47;;;7.76;70.38
40992;BME280;29633;49.168;9.848;2022-12-07T02:43:47;96806.09;;;7.75;70.28
40992;BME280;29633;49.168;9.848;2022-12-07T02:46:18;96802.19;;;7.70;70.07
40992;BME280;29633;49.168;9.848;2022-12-07T02:48:46;96796.59;;;7.63;70.18
40992;BME280;29633;49.168;9.848;2022-12-07T02:51:12;96793.13;;;7.52;70.11
40992;BME280;29633;49.168;9.848;2022-12-07T02:53:40;96781.66;;;7.43;70.19
40992;BME280;29633;49.168;9.848;2022-12-07T02:57:07;96786.50;;;7.35;70.20
40992;BME280;29633;49.168;9.848;2022-12-07T03:02:38;96781.53;;;7.07;70.24
40992;BME280;29633;49.168;9.848;2022-12-07T03:10:47;96785.94;;;6.92;70.10
40992;BME280;29633;49.168;9.848;2022-12-07T03:13:28;96785.84;;;6.93;70.19
40992;BME280;29633;49.168;9.848;2022-12-07T03:18:21;96780.28;;;7.00;70.09
40992;BME280;29633;49.168;9.848;2022-12-07T03:20:49;96778.84;;;6.96;69.97
40992;BME280;29633;49.168;9.848;2022-12-07T03:23:16;96781.41;;;6.96;70.34
40992;BME280;29633;49.168;9.848;2022-12-07T03:25:47;96772.84;;;6.95;69.94
40992;BME280;29633;49.168;9.848;2022-12-07T03:28:16;96775.34;;;6.97;70.07
40992;BME280;29633;49.168;9.848;2022-12-07T03:33:14;96767.69;;;6.95;69.99
40992;BME280;29633;49.168;9.848;2022-12-07T03:36:16;96765.13;;;6.95;69.98
40992;BME280;29633;49.168;9.848;2022-12-07T03:38:48;96760.38;;;6.89;69.80
40992;BME280;29633;49.168;9.848;2022-12-07T03:41:24;96756.97;;;6.88;70.39
40992;BME280;29633;49.168;9.848;2022-12-07T03:43:50;96759.06;;;6.83;70.10
40992;BME280;29633;49.168;9.848;2022-12-07T03:49:47;96769.78;;;6.90;70.02
40992;BME280;29633;49.168;9.848;2022-12-07T03:52:26;96775.44;;;6.95;70.09
40992;BME280;29633;49.168;9.848;2022-12-07T03:57:25;96787.53;;;7.07;69.98
40992;BME280;29633;49.168;9.848;2022-12-07T03:59:51;96777.84;;;7.11;70.17
40992;BME280;29633;49.168;9.848;2022-12-07T04:02:19;96778.38;;;7.16;69.87
40992;BME280;29633;49.168;9.848;2022-12-07T04:04:45;96779.69;;;7.21;69.95
40992;BME280;29633;49.168;9.848;2022-12-07T04:07:11;96779.47;;;7.24;69.93
40992;BME280;29633;49.168;9.848;2022-12-07T04:09:38;96774.31;;;7.24;69.95
40992;BME280;29633;49.168;9.848;2022-12-07T04:12:04;96779.59;;;7.23;70.22
40992;BME280;29633;49.168;9.848;2022-12-07T04:14:30;96774.44;;;7.23;70.16
40992;BME280;29633;49.168;9.848;2022-12-07T04:16:57;96773.31;;;7.27;70.16
40992;BME280;29633;49.168;9.848;2022-12-07T04:19:25;96775.56;;;7.31;70.06
40992;BME280;29633;49.168;9.848;2022-12-07T04:21:51;96769.56;;;7.31;70.24
40992;BME280;29633;49.168;9.848;2022-12-07T04:24:17;96769.56;;;7.31;70.26
40992;BME280;29633;49.168;9.848;2022-12-07T04:26:43;96772.50;;;7.26;70.25
40992;BME280;29633;49.168;9.848;2022-12-07T04:29:09;96775.16;;;7.25;70.41
40992;BME280;29633;49.168;9.848;2022-12-07T04:31:35;96783.81;;;7.24;70.56
40992;BME280;29633;49.168;9.848;2022-12-07T04:34:02;96785.38;;;7.26;70.30
40992;BME280;29633;49.168;9.848;2022-12-07T04:36:28;96782.88;;;7.25;70.47
40992;BME280;29633;49.168;9.848;2022-12-07T04:38:54;96775.97;;;7.25;70.43
40992;BME280;29633;49.168;9.848;2022-12-07T04:41:20;96770.31;;;7.33;70.20
40992;BME280;29633;49.168;9.848;2022-12-07T04:44:03;96767.63;;;7.34;70.19
40992;BME280;29633;49.168;9.848;2022-12-07T04:46:30;96770.94;;;7.36;70.30
40992;BME280;29633;49.168;9.848;2022-12-07T04:48:57;96766.59;;;7.37;70.04
40992;BME280;29633;49.168;9.848;2022-12-07T04:51:25;96762.66;;;7.31;70.30
40992;BME280;29633;49.168;9.848;2022-12-07T04:53:51;96775.56;;;7.31;70.38
40992;BME280;29633;49.168;9.848;2022-12-07T04:56:17;96762.66;;;7.31;70.27
40992;BME280;29633;49.168;9.848;2022-12-07T04:58:45;96759.88;;;7.34;70.39
40992;BME280;29633;49.168;9.848;2022-12-07T05:01:11;96770.00;;;7.37;70.29
40992;BME280;29633;49.168;9.848;2022-12-07T05:03:37;96764.84;;;7.37;70.18
40992;BME280;29633;49.168;9.848;2022-12-07T05:06:04;96770.81;;;7.38;70.20
40992;BME280;29633;49.168;9.848;2022-12-07T05:08:30;96766.28;;;7.41;70.37
40992;BME280;29633;49.168;9.848;2022-12-07T05:10:55;96764.34;;;7.45;70.24
40992;BME280;29633;49.168;9.848;2022-12-07T05:13:21;96765.88;;;7.48;70.07
40992;BME280;29633;49.168;9.848;2022-12-07T05:15:48;96766.50;;;7.51;70.16
40992;BME280;29633;49.168;9.848;2022-12-07T05:18:14;96763.69;;;7.54;70.21
40992;BME280;29633;49.168;9.848;2022-12-07T05:20:40;96763.38;;;7.59;69.93
40992;BME280;29633;49.168;9.848;2022-12-07T05:23:06;96768.34;;;7.62;69.75
40992;BME280;29633;49.168;9.848;2022-12-07T05:25:32;96764.00;;;7.62;70.06
40992;BME280;29633;49.168;9.848;2022-12-07T05:27:57;96760.81;;;7.59;70.03
40992;BME280;29633;49.168;9.848;2022-12-07T05:30:24;96761.13;;;7.54;70.38
40992;BME280;29633;49.168;9.848;2022-12-07T05:32:50;96764.84;;;7.50;70.43
40992;BME280;29633;49.168;9.848;2022-12-07T05:35:17;96760.81;;;7.46;70.25
40992;BME280;29633;49.168;9.848;2022-12-07T05:37:42;96761.63;;;7.47;70.36
40992;BME280;29633;49.168;9.848;2022-12-07T05:40:09;96755.66;;;7.46;70.51
40992;BME280;29633;49.168;9.848;2022-12-07T05:42:35;96759.97;;;7.46;70.53
40992;BME280;29633;49.168;9.848;2022-12-07T05:45:01;96760.19;;;7.42;70.59
40992;BME280;29633;49.168;9.848;2022-12-07T05:47:26;96768.06;;;7.41;70.58
40992;BME280;29633;49.168;9.848;2022-12-07T05:49:52;96768.16;;;7.39;70.47
40992;BME280;29633;49.168;9.848;2022-12-07T05:52:18;96764.03;;;7.37;70.49
40992;BME280;29633;49.168;9.848;2022-12-07T05:54:43;96764.84;;;7.37;70.68
40992;BME280;29633;49.168;9.848;2022-12-07T05:57:09;96760.63;;;7.36;70.49
40992;BME280;29633;49.168;9.848;2022-12-07T05:59:35;96760.72;;;7.35;70.67
40992;BME280;29633;49.168;9.848;2022-12-07T06:02:03;96760.31;;;7.28;70.74
40992;BME280;29633;49.168;9.848;2022-12-07T06:04:31;96760.72;;;7.22;70.58
40992;BME280;29633;49.168;9.848;2022-12-07T06:06:57;96762.91;;;7.16;70.68
40992;BME280;29633;49.168;9.848;2022-12-07T06:09:24;96759.69;;;7.12;70.75
40992;BME280;29633;49.168;9.848;2022-12-07T06:11:49;96759.69;;;7.12;70.68
40992;BME280;29633;49.168;9.848;2022-12-07T06:14:34;96762.47;;;7.09;70.72
40992;BME280;29633;49.168;9.848;2022-12-07T06:16:59;96761.75;;;7.07;70.73
40992;BME280;29633;49.168;9.848;2022-12-07T06:19:25;96766.06;;;7.07;70.74
40992;BME280;29633;49.168;9.848;2022-12-07T06:21:51;96773.72;;;7.08;70.62
40992;BME280;29633;49.168;9.848;2022-12-07T06:24:17;96772.88;;;7.08;70.79
40992;BME280;29633;49.168;9.848;2022-12-07T06:26:42;96764.41;;;7.06;70.66
40992;BME280;29633;49.168;9.848;2022-12-07T06:29:09;96775.56;;;7.06;70.73
40992;BME280;29633;49.168;9.848;2022-12-07T06:31:35;96781.53;;;7.07;70.85
40992;BME280;29633;49.168;9.848;2022-12-07T06:34:03;96774.53;;;7.09;70.77
40992;BME280;29633;49.168;9.848;2022-12-07T06:36:29;96775.25;;;7.11;70.73
40992;BME280;29633;49.168;9.848;2022-12-07T06:38:55;96781.94;;;7.13;70.54
40992;BME280;29633;49.168;9.848;2022-12-07T06:41:21;96769.19;;;7.12;70.58
40992;BME280;29633;49.168;9.848;2022-12-07T06:43:47;96773.50;;;7.11;70.80
40992;BME280;29633;49.168;9.848;2022-12-07T06:46:13;96769.19;;;7.12;70.56
40992;BME280;29633;49.168;9.848;2022-12-07T06:48:40;96771.53;;;7.15;70.68
40992;BME280;29633;49.168;9.848;2022-12-07T06:51:06;96763.59;;;7.18;70.57
40992;BME280;29633;49.168;9.848;2022-12-07T06:53:32;96764.22;;;7.21;70.64
40992;BME280;29633;49.168;9.848;2022-12-07T06:55:57;96766.28;;;7.29;70.35
40992;BME280;29633;49.168;9.848;2022-12-07T06:58:23;96764.41;;;7.31;70.44
40992;BME280;29633;49.168;9.848;2022-12-07T07:00:49;96772.69;;;7.36;70.36
40992;BME280;29633;49.168;9.848;2022-12-07T07:03:16;96776.09;;;7.36;70.19
40992;BME280;29633;49.168;9.848;2022-12-07T07:05:42;96782.78;;;7.39;70.23
40992;BME280;29633;49.168;9.848;2022-12-07T07:08:08;96779.06;;;7.43;70.33
40992;BME280;29633;49.168;9.848;2022-12-07T07:10:34;96779.91;;;7.43;70.12
40992;BME280;29633;49.168;9.848;2022-12-07T07:13:00;96784.16;;;7.45;70.22
40992;BME280;29633;49.168;9.848;2022-12-07T07:15:26;96784.03;;;7.46;70.25
40992;BME280;29633;49.168;9.848;2022-12-07T07:17:51;96777.94;;;7.47;70.39
40992;BME280;29633;49.168;9.848;2022-12-07T07:20:17;96775.06;;;7.52;70.20
40992;BME280;29633;49.168;9.848;2022-12-07T07:22:43;96770.91;;;7.49;70.39
40992;BME280;29633;49.168;9.848;2022-12-07T07:25:09;96774.22;;;7.51;70.28
40992;BME280;29633;49.168;9.848;2022-12-07T07:27:34;96777.84;;;7.49;70.36
40992;BME280;29633;49.168;9.848;2022-12-07T07:30:00;96776.06;;;7.49;70.21
40992;BME280;29633;49.168;9.848;2022-12-07T07:32:26;96780.31;;;7.50;70.22
40992;BME280;29633;49.168;9.848;2022-12-07T07:34:51;96790.63;;;7.50;70.30
40992;BME280;29633;49.168;9.848;2022-12-07T07:37:17;96795.78;;;7.50;70.35
40992;BME280;29633;49.168;9.848;2022-12-07T07:39:43;96792.28;;;7.51;70.22
40992;BME280;29633;49.168;9.848;2022-12-07T07:42:09;96793.00;;;7.53;70.43
40992;BME280;29633;49.168;9.848;2022-12-07T07:44:34;96794.66;;;7.54;70.34
40992;BME280;29633;49.168;9.848;2022-12-07T07:47:00;96788.97;;;7.49;70.25
40992;BME280;29633;49.168;9.848;2022-12-07T07:49:26;96796.63;;;7.51;70.35
40992;BME280;29633;49.168;9.848;2022-12-07T07:51:52;96792.16;;;7.53;70.27
40992;BME280;29633;49.168;9.848;2022-12-07T07:54:17;96791.53;;;7.49;70.37
40992;BME280;29633;49.168;9.848;2022-12-07T07:56:43;96796.22;;;7.44;70.49
40992;BME280;29633;49.168;9.848;2022-12-07T07:59:09;96803.22;;;7.42;70.50
40992;BME280;29633;49.168;9.848;2022-12-07T08:01:34;96799.63;;;7.45;70.53
40992;BME280;29633;49.168;9.848;2022-12-07T08:04:00;96802.06;;;7.46;70.29
40992;BME280;29633;49.168;9.848;2022-12-07T08:06:26;96799.63;;;7.45;70.27
40992;BME280;29633;49.168;9.848;2022-12-07T08:08:54;96801.25;;;7.46;70.30
40992;BME280;29633;49.168;9.848;2022-12-07T08:11:19;96811.06;;;7.40;70.34
40992;BME280;29633;49.168;9.848;2022-12-07T08:13:46;96806.22;;;7.36;70.68
40992;BME280;29633;49.168;9.848;2022-12-07T08:16:14;96804.03;;;7.30;70.46
40992;BME280;29633;49.168;9.848;2022-12-07T08:18:41;96812.91;;;7.26;70.52
40992;BME280;29633;49.168;9.848;2022-12-07T08:21:08;96805.47;;;7.21;70.50
40992;BME280;29633;49.168;9.848;2022-12-07T08:23:34;96811.47;;;7.22;70.60
40992;BME280;29633;49.168;9.848;2022-12-07T08:26:05;96807.97;;;7.23;70.64
40992;BME280;29633;49.168;9.848;2022-12-07T08:28:31;96807.00;;;7.24;70.67
40992;BME280;29633;49.168;9.848;2022-12-07T08:31:01;96812.16;;;7.24;70.39
40992;BME280;29633;49.168;9.848;2022-12-07T08:33:27;96806.63;;;7.30;70.46
40992;BME280;29633;49.168;9.848;2022-12-07T08:35:52;96807.34;;;7.32;70.40
40992;BME280;29633;49.168;9.848;2022-12-07T08:38:18;96813.13;;;7.35;70.44
40992;BME280;29633;49.168;9.848;2022-12-07T08:40:43;96808.06;;;7.34;70.41
40992;BME280;29633;49.168;9.848;2022-12-07T08:43:09;96806.22;;;7.36;70.46
40992;BME280;29633;49.168;9.848;2022-12-07T08:45:35;96806.13;;;7.37;70.43
40992;BME280;29633;49.168;9.848;2022-12-07T08:48:06;96807.88;;;7.37;70.27
40992;BME280;29633;49.168;9.848;2022-12-07T08:50:33;96807.66;;;7.40;70.30
40992;BME280;29633;49.168;9.848;2022-12-07T08:52:59;96801.56;;;7.41;70.30
40992;BME280;29633;49.168;9.848;2022-12-07T08:55:25;96806.53;;;7.44;70.42
40992;BME280;29633;49.168;9.848;2022-12-07T08:57:52;96803.81;;;7.46;70.22
40992;BME280;29633;49.168;9.848;2022-12-07T09:00:18;96802.06;;;7.46;70.32
40992;BME280;29633;49.168;9.848;2022-12-07T09:02:45;96807.75;;;7.51;70.42
40992;BME280;29633;49.168;9.848;2022-12-07T09:05:11;96801.56;;;7.54;70.26
40992;BME280;29633;49.168;9.848;2022-12-07T09:07:37;96808.16;;;7.58;70.22
40992;BME280;29633;49.168;9.848;2022-12-07T09:10:04;96809.41;;;7.65;70.05
40992;BME280;29633;49.168;9.848;2022-12-07T09:12:30;96801.56;;;7.66;70.16
40992;BME280;29633;49.168;9.848;2022-12-07T09:14:56;96812.50;;;7.70;69.98
40992;BME280;29633;49.168;9.848;2022-12-07T09:17:21;96814.56;;;7.77;70.08
40992;BME280;29633;49.168;9.848;2022-12-07T09:19:47;96813.41;;;7.81;70.11
40992;BME280;29633;49.168;9.848;2022-12-07T09:22:13;96809.88;;;7.82;69.98
40992;BME280;29633;49.168;9.848;2022-12-07T09:24:38;96804.84;;;7.81;70.09
40992;BME280;29633;49.168;9.848;2022-12-07T09:27:04;96806.59;;;7.80;70.28
40992;BME280;29633;49.168;9.848;2022-12-07T09:29:29;96803.19;;;7.80;70.19
40992;BME280;29633;49.168;9.848;2022-12-07T09:31:55;96807.31;;;7.82;70.26
40992;BME280;29633;49.168;9.848;2022-12-07T09:34:21;96809.81;;;7.84;70.02
40992;BME280;29633;49.168;9.848;2022-12-07T09:36:47;96808.97;;;7.83;70.24
40992;BME280;29633;49.168;9.848;2022-12-07T09:39:12;96810.63;;;7.84;70.24
40992;BME280;29633;49.168;9.848;2022-12-07T09:41:42;96810.41;;;7.87;70.03
40992;BME280;29633;49.168;9.848;2022-12-07T09:44:23;96807.41;;;7.93;70.22
40992;BME280;29633;49.168;9.848;2022-12-07T09:46:49;96812.34;;;7.97;69.98
40992;BME280;29633;49.168;9.848;2022-12-07T09:49:20;96813.19;;;7.97;69.94
40992;BME280;29633;49.168;9.848;2022-12-07T09:51:46;96809.75;;;7.97;70.10
40992;BME280;29633;49.168;9.848;2022-12-07T09:54:14;96812.25;;;7.98;70.01
40992;BME280;29633;49.168;9.848;2022-12-07T09:56:40;96813.09;;;7.99;69.94
40992;BME280;29633;49.168;9.848;2022-12-07T09:59:08;96809.06;;;7.95;70.17
40992;BME280;29633;49.168;9.848;2022-12-07T10:01:38;96804.63;;;7.84;70.10
40992;BME280;29633;49.168;9.848;2022-12-07T10:04:20;96810.31;;;7.76;70.36
40992;BME280;29633;49.168;9.848;2022-12-07T10:06:47;96811.47;;;7.72;70.36
40992;BME280;29633;49.168;9.848;2022-12-07T10:09:15;96800.31;;;7.72;70.43
40992;BME280;29633;49.168;9.848;2022-12-07T10:12:09;96800.31;;;7.72;70.16
40992;BME280;29633;49.168;9.848;2022-12-07T10:14:38;96794.31;;;7.71;70.42
40992;BME280;29633;49.168;9.848;2022-12-07T10:17:29;96794.31;;;7.71;70.25
40992;BME280;29633;49.168;9.848;2022-12-07T10:22:36;96785.66;;;7.72;70.24
40992;BME280;29633;49.168;9.848;2022-12-07T10:25:17;96786.59;;;7.71;70.23
40992;BME280;29633;49.168;9.848;2022-12-07T10:27:43;96791.66;;;7.73;70.24
40992;BME280;29633;49.168;9.848;2022-12-07T10:30:13;96783.06;;;7.72;70.23
40992;BME280;29633;49.168;9.848;2022-12-07T10:32:39;96789.50;;;7.67;70.47
40992;BME280;29633;49.168;9.848;2022-12-07T10:35:25;96780.94;;;7.66;70.43
40992;BME280;29633;49.168;9.848;2022-12-07T10:37:52;96779.34;;;7.64;70.53
40992;BME280;29633;49.168;9.848;2022-12-07T10:51:11;96771.84;;;7.73;70.43
40992;BME280;29633;49.168;9.848;2022-12-07T10:59:14;96759.06;;;7.59;70.57
40992;BME280;29633;49.168;9.848;2022-12-07T11:07:10;96759.34;;;7.67;70.41
40992;BME280;29633;49.168;9.848;2022-12-07T11:12:21;96756.13;;;7.64;70.55
40992;BME280;29633;49.168;9.848;2022-12-07T11:14:56;96746.88;;;7.61;70.64
40992;BME280;29633;49.168;9.848;2022-12-07T11:26:39;96742.94;;;7.68;70.39
40992;BME280;29633;49.168;9.848;2022-12-07T11:32:19;96740.41;;;7.56;70.50
40992;BME280;29633;49.168;9.848;2022-12-07T11:37:34;96739.34;;;7.58;70.77
40992;BME280;29633;49.168;9.848;2022-12-07T11:42:54;96729.03;;;7.58;70.61
40992;BME280;29633;49.168;9.848;2022-12-07T11:45:30;96729.84;;;7.59;70.92
40992;BME280;29633;49.168;9.848;2022-12-07T11:48:24;96733.88;;;7.63;70.44
40992;BME280;29633;49.168;9.848;2022-12-07T11:50:50;96727.16;;;7.60;70.73
40992;BME280;29633;49.168;9.848;2022-12-07T11:53:19;96725.63;;;7.58;70.58
40992;BME280;29633;49.168;9.848;2022-12-07T11:56:00;96722.34;;;7.56;70.84
40992;BME280;29633;49.168;9.848;2022-12-07T12:06:11;96710.75;;;7.61;70.67
40992;BME280;29633;49.168;9.848;2022-12-07T12:11:24;96714.03;;;7.63;70.61
40992;BME280;29633;49.168;9.848;2022-12-07T12:21:20;96707.03;;;7.65;70.78
40992;BME280;29633;49.168;9.848;2022-12-07T12:24:02;96700.72;;;7.69;70.82
40992;BME280;29633;49.168;9.848;2022-12-07T12:26:31;96696.28;;;7.71;70.70
40992;BME280;29633;49.168;9.848;2022-12-07T12:29:26;96693.69;;;7.71;70.79
40992;BME280;29633;49.168;9.848;2022-12-07T12:32:12;96694.22;;;7.76;70.61
40992;BME280;29633;49.168;9.848;2022-12-07T12:42:55;96696.97;;;7.86;70.65
40992;BME280;29633;49.168;9.848;2022-12-07T12:45:25;96688.59;;;7.82;70.54
40992;BME280;29633;49.168;9.848;2022-12-07T12:53:02;96686.53;;;7.87;70.80
40992;BME280;29633;49.168;9.848;2022-12-07T13:00:43;96681.16;;;7.90;70.46
40992;BME280;29633;49.168;9.848;2022-12-07T13:03:29;96676.59;;;7.94;70.54
40992;BME280;29633;49.168;9.848;2022-12-07T13:08:46;96677.44;;;7.95;70.56
40992;BME280;29633;49.168;9.848;2022-12-07T13:13:57;96676.00;;;7.90;70.79
40992;BME280;29633;49.168;9.848;2022-12-07T13:16:39;96662.38;;;7.88;70.70
40992;BME280;29633;49.168;9.848;2022-12-07T13:27:37;96656.59;;;7.85;70.76
40992;BME280;29633;49.168;9.848;2022-12-07T13:30:23;96655.97;;;7.81;70.93
40992;BME280;29633;49.168;9.848;2022-12-07T13:32:56;96657.78;;;7.81;70.82
40992;BME280;29633;49.168;9.848;2022-12-07T13:37:59;96649.81;;;7.84;70.75
40992;BME280;29633;49.168;9.848;2022-12-07T13:40:26;96648.75;;;7.86;70.73
40992;BME280;29633;49.168;9.848;2022-12-07T13:43:03;96652.06;;;7.88;70.83
40992;BME280;29633;49.168;9.848;2022-12-07T13:45:33;96647.00;;;7.87;70.71
40992;BME280;29633;49.168;9.848;2022-12-07T13:48:42;96649.81;;;7.84;70.61
40992;BME280;29633;49.168;9.848;2022-12-07T13:51:22;96651.78;;;7.80;70.92
40992;BME280;29633;49.168;9.848;2022-12-07T13:53:52;96655.06;;;7.82;70.83
40992;BME280;29633;49.168;9.848;2022-12-07T13:56:18;96655.19;;;7.81;70.76
40992;BME280;29633;49.168;9.848;2022-12-07T13:58:43;96658.19;;;7.75;70.93
40992;BME280;29633;49.168;9.848;2022-12-07T14:01:10;96656.56;;;7.74;70.96
40992;BME280;29633;49.168;9.848;2022-12-07T14:03:36;96656.13;;;7.80;70.84
40992;BME280;29633;49.168;9.848;2022-12-07T14:06:36;96645.56;;;7.83;70.68
40992;BME280;29633;49.168;9.848;2022-12-07T14:09:18;96649.81;;;7.84;70.76
40992;BME280;29633;49.168;9.848;2022-12-07T14:11:45;96657.31;;;7.87;70.86
40992;BME280;29633;49.168;9.848;2022-12-07T14:14:13;96656.78;;;7.95;70.72
40992;BME280;29633;49.168;9.848;2022-12-07T14:16:40;96665.81;;;8.00;70.62
40992;BME280;29633;49.168;9.848;2022-12-07T14:19:43;96657.16;;;8.01;70.53
40992;BME280;29633;49.168;9.848;2022-12-07T14:22:25;96656.31;;;8.01;70.62
40992;BME280;29633;49.168;9.848;2022-12-07T14:25:43;96660.25;;;8.06;70.63
40992;BME280;29633;49.168;9.848;2022-12-07T14:27:57;96657.66;;;8.06;70.56
40992;BME280;29633;49.168;9.848;2022-12-07T14:30:28;96659.19;;;8.09;70.68
40992;BME280;29633;49.168;9.848;2022-12-07T14:33:04;96661.66;;;8.10;70.60
40992;BME280;29633;49.168;9.848;2022-12-07T14:35:31;96658.25;;;8.10;70.72
40992;BME280;29633;49.168;9.848;2022-12-07T14:37:57;96654.72;;;8.11;70.62
40992;BME280;29633;49.168;9.848;2022-12-07T14:40:24;96658.72;;;8.15;70.70
40992;BME280;29633;49.168;9.848;2022-12-07T14:42:55;96652.41;;;8.19;70.75
40992;BME280;29633;49.168;9.848;2022-12-07T14:45:22;96645.59;;;8.18;70.66
40992;BME280;29633;49.168;9.848;2022-12-07T14:47:48;96642.91;;;8.19;70.64
40992;BME280;29633;49.168;9.848;2022-12-07T14:50:16;96650.75;;;8.18;70.62
40992;BME280;29633;49.168;9.848;2022-12-07T14:53:02;96649.72;;;8.20;70.66
40992;BME280;29633;49.168;9.848;2022-12-07T14:55:30;96655.50;;;8.24;70.57
40992;BME280;29633;49.168;9.848;2022-12-07T14:57:58;96643.19;;;8.27;70.57
40992;BME280;29633;49.168;9.848;2022-12-07T15:00:25;96645.44;;;8.32;70.60
40992;BME280;29633;49.168;9.848;2022-12-07T15:02:52;96642.16;;;8.30;70.47
40992;BME280;29633;49.168;9.848;2022-12-07T15:05:18;96644.94;;;8.27;70.63
40992;BME280;29633;49.168;9.848;2022-12-07T15:07:45;96641.09;;;8.32;70.60
40992;BME280;29633;49.168;9.848;2022-12-07T15:10:21;96647.81;;;8.35;70.54
40992;BME280;29633;49.168;9.848;2022-12-07T15:12:47;96645.00;;;8.38;70.52
40992;BME280;29633;49.168;9.848;2022-12-07T15:15:13;96646.44;;;8.42;70.67
40992;BME280;29633;49.168;9.848;2022-12-07T15:17:39;96645.16;;;8.48;70.30
40992;BME280;29633;49.168;9.848;2022-12-07T15:20:05;96649.47;;;8.47;70.52
40992;BME280;29633;49.168;9.848;2022-12-07T15:22:31;96646.06;;;8.47;70.49
40992;BME280;29633;49.168;9.848;2022-12-07T15:24:57;96641.63;;;8.49;70.36
40992;BME280;29633;49.168;9.848;2022-12-07T15:27:23;96639.88;;;8.49;70.42